createdAt,value
2022-10-24T00:01:32.491Z,63.33
2022-10-24T00:04:00.311Z,62.91
2022-10-24T00:06:28.338Z,62.30
2022-10-24T00:08:56.625Z,61.95
2022-10-24T00:11:27.000Z,61.67
2022-10-24T00:13:56.402Z,61.17
2022-10-24T00:16:24.165Z,60.85
2022-10-24T00:18:52.135Z,60.11
2022-10-24T00:21:20.204Z,60.27
2022-10-24T00:23:48.081Z,59.94
2022-10-24T00:26:16.958Z,58.21
2022-10-24T00:28:44.723Z,57.11
2022-10-24T00:31:17.562Z,58.55
2022-10-24T00:33:45.579Z,58.32
2022-10-24T00:36:16.317Z,58.81
2022-10-24T00:38:44.178Z,58.96
2022-10-24T00:41:39.599Z,58.44
2022-10-24T00:44:20.249Z,59.52
2022-10-24T00:46:53.545Z,60.13
2022-10-24T00:49:25.061Z,64.46
2022-10-24T00:51:55.489Z,70.53
2022-10-24T00:54:23.487Z,70.91
2022-10-24T00:57:20.183Z,70.13
2022-10-24T00:59:50.505Z,68.32
2022-10-24T01:02:18.320Z,67.27
2022-10-24T01:04:47.925Z,66.51
2022-10-24T01:07:47.534Z,65.56
2022-10-24T01:11:00.251Z,64.40
2022-10-24T01:14:12.968Z,63.69
2022-10-24T01:17:20.271Z,63.18
2022-10-24T01:20:19.456Z,62.28
2022-10-24T01:23:18.350Z,61.50
2022-10-24T01:26:16.784Z,61.21
2022-10-24T01:29:17.263Z,60.72
2022-10-24T01:31:49.222Z,60.52
2022-10-24T01:34:30.402Z,60.39
2022-10-24T01:37:22.361Z,60.37
2022-10-24T01:39:51.631Z,59.94
2022-10-24T01:42:21.339Z,59.70
2022-10-24T01:44:50.845Z,59.30
2022-10-24T01:47:25.291Z,57.77
2022-10-24T01:49:57.127Z,58.08
2022-10-24T01:52:26.523Z,57.87
2022-10-24T01:54:54.696Z,59.46
2022-10-24T01:57:28.904Z,60.60
2022-10-24T01:59:56.981Z,66.50
2022-10-24T02:02:31.913Z,69.62
2022-10-24T02:05:05.512Z,68.81
2022-10-24T02:07:33.689Z,67.11
2022-10-24T02:10:12.816Z,65.77
2022-10-24T02:12:44.627Z,65.23
2022-10-24T02:15:28.779Z,64.55
2022-10-24T02:17:57.096Z,63.98
2022-10-24T02:20:37.764Z,63.62
2022-10-24T02:23:12.761Z,62.81
2022-10-24T02:25:42.993Z,63.00
2022-10-24T02:28:15.449Z,62.24
2022-10-24T02:31:00.254Z,61.66
2022-10-24T02:33:28.221Z,61.57
2022-10-24T02:35:56.701Z,60.85
2022-10-24T02:38:32.246Z,60.99
2022-10-24T02:41:01.751Z,60.77
2022-10-24T02:43:29.514Z,60.25
2022-10-24T02:45:57.382Z,60.54
2022-10-24T02:48:30.159Z,60.15
2022-10-24T02:50:58.231Z,60.03
2022-10-24T02:53:26.314Z,60.23
2022-10-24T02:55:54.270Z,60.31
2022-10-24T02:58:22.047Z,59.84
2022-10-24T03:00:49.929Z,60.04
2022-10-24T03:03:17.969Z,60.24
2022-10-24T03:05:45.833Z,60.25
2022-10-24T03:08:13.804Z,60.00
2022-10-24T03:10:41.769Z,60.00
2022-10-24T03:13:09.636Z,60.17
2022-10-24T03:15:37.548Z,60.19
2022-10-24T03:18:05.573Z,60.35
2022-10-24T03:20:33.336Z,60.00
2022-10-24T03:23:01.919Z,59.97
2022-10-24T03:25:29.787Z,58.56
2022-10-24T03:27:57.648Z,56.60
2022-10-24T03:30:25.513Z,55.72
2022-10-24T03:32:53.279Z,57.40
2022-10-24T03:35:21.452Z,59.55
2022-10-24T03:37:49.317Z,60.58
2022-10-24T03:40:17.493Z,60.61
2022-10-24T03:42:45.613Z,59.69
2022-10-24T03:45:13.702Z,60.27
2022-10-24T03:47:41.598Z,60.91
2022-10-24T03:50:09.676Z,62.66
2022-10-24T03:52:37.640Z,70.13
2022-10-24T03:55:06.424Z,72.01
2022-10-24T03:57:34.290Z,70.98
2022-10-24T04:00:02.155Z,70.02
2022-10-24T04:02:34.464Z,68.31
2022-10-24T04:05:02.296Z,66.49
2022-10-24T04:07:30.261Z,65.54
2022-10-24T04:09:58.228Z,64.73
2022-10-24T04:12:26.093Z,63.75
2022-10-24T04:14:54.477Z,63.36
2022-10-24T04:17:22.440Z,63.06
2022-10-24T04:19:50.305Z,62.75
2022-10-24T04:22:18.192Z,61.90
2022-10-24T04:24:46.035Z,60.86
2022-10-24T04:27:14.002Z,60.40
2022-10-24T04:29:41.973Z,60.20
2022-10-24T04:32:09.848Z,60.21
2022-10-24T04:34:37.703Z,60.01
2022-10-24T04:37:05.773Z,60.12
2022-10-24T04:39:33.643Z,59.93
2022-10-24T04:42:01.811Z,60.25
2022-10-24T04:44:29.884Z,60.14
2022-10-24T04:46:57.751Z,60.33
2022-10-24T04:49:25.535Z,59.96
2022-10-24T04:51:53.479Z,59.61
2022-10-24T04:54:21.286Z,59.57
2022-10-24T04:56:49.213Z,58.34
2022-10-24T04:59:17.180Z,57.29
2022-10-24T05:01:45.020Z,58.24
2022-10-24T05:04:13.057Z,60.11
2022-10-24T05:06:42.798Z,61.33
2022-10-24T05:09:14.478Z,60.82
2022-10-24T05:11:42.357Z,60.09
2022-10-24T05:14:10.312Z,59.58
2022-10-24T05:16:38.130Z,60.69
2022-10-24T05:19:06.375Z,61.18
2022-10-24T05:21:34.217Z,61.39
2022-10-24T05:24:02.492Z,65.17
2022-10-24T05:26:30.766Z,72.05
2022-10-24T05:28:58.579Z,72.38
2022-10-24T05:31:26.454Z,70.73
2022-10-24T05:33:54.466Z,69.38
2022-10-24T05:36:22.330Z,67.53
2022-10-24T05:38:50.196Z,65.93
2022-10-24T05:41:18.065Z,64.80
2022-10-24T05:43:45.829Z,63.55
2022-10-24T05:46:13.545Z,63.05
2022-10-24T05:48:41.351Z,62.02
2022-10-24T05:51:09.219Z,62.04
2022-10-24T05:53:37.008Z,61.76
2022-10-24T05:56:06.238Z,61.22
2022-10-24T05:58:34.080Z,60.70
2022-10-24T06:01:02.094Z,60.30
2022-10-24T06:03:29.895Z,59.93
2022-10-24T06:05:57.858Z,57.50
2022-10-24T06:08:25.711Z,57.86
2022-10-24T06:10:53.884Z,59.25
2022-10-24T06:13:21.581Z,60.01
2022-10-24T06:15:49.418Z,60.95
2022-10-24T06:18:17.276Z,61.19
2022-10-24T06:20:45.141Z,61.67
2022-10-24T06:23:13.007Z,62.18
2022-10-24T06:25:42.101Z,63.18
2022-10-24T06:28:10.073Z,69.98
2022-10-24T06:30:39.785Z,70.39
2022-10-24T06:33:07.590Z,68.47
2022-10-24T06:35:35.819Z,66.74
2022-10-24T06:38:03.784Z,65.63
2022-10-24T06:40:31.859Z,64.42
2022-10-24T06:42:59.724Z,63.32
2022-10-24T06:45:27.490Z,62.55
2022-10-24T06:47:55.673Z,62.27
2022-10-24T06:50:23.704Z,62.49
2022-10-24T06:52:51.492Z,63.48
2022-10-24T06:55:19.565Z,63.88
2022-10-24T06:57:47.425Z,64.74
2022-10-24T07:00:16.351Z,65.50
2022-10-24T07:02:44.428Z,65.28
2022-10-24T07:05:14.715Z,65.73
2022-10-24T07:07:43.232Z,64.85
2022-10-24T07:10:13.282Z,64.86
2022-10-24T07:12:41.175Z,64.23
2022-10-24T07:15:10.169Z,63.32
2022-10-24T07:17:44.896Z,63.82
2022-10-24T07:20:13.276Z,63.78
2022-10-24T07:22:42.162Z,64.22
2022-10-24T07:25:10.037Z,63.20
2022-10-24T07:27:38.101Z,63.01
2022-10-24T07:30:07.837Z,63.41
2022-10-24T07:32:35.803Z,63.26
2022-10-24T07:35:03.844Z,63.12
2022-10-24T07:37:32.020Z,62.99
2022-10-24T07:39:59.742Z,63.17
2022-10-24T07:42:27.544Z,62.99
2022-10-24T07:44:55.512Z,62.89
2022-10-24T07:47:23.377Z,62.80
2022-10-24T07:49:51.347Z,62.86
2022-10-24T07:52:19.232Z,62.62
2022-10-24T07:54:47.080Z,63.13
2022-10-24T07:57:14.951Z,63.31
2022-10-24T07:59:43.031Z,63.14
2022-10-24T08:02:12.313Z,63.27
2022-10-24T08:04:40.228Z,63.19
2022-10-24T08:07:13.545Z,63.14
2022-10-24T08:09:47.337Z,62.69
2022-10-24T08:12:15.145Z,62.60
2022-10-24T08:14:43.090Z,62.66
2022-10-24T08:17:11.091Z,62.54
2022-10-24T08:19:43.860Z,61.95
2022-10-24T08:22:12.547Z,61.83
2022-10-24T08:24:40.510Z,61.35
2022-10-24T08:27:08.378Z,61.15
2022-10-24T08:29:36.860Z,60.38
2022-10-24T08:32:07.078Z,60.31
2022-10-24T08:34:35.050Z,60.42
2022-10-24T08:37:03.693Z,60.17
2022-10-24T08:39:31.499Z,60.29
2022-10-24T08:42:08.126Z,60.49
2022-10-24T08:44:41.109Z,60.42
2022-10-24T08:47:45.063Z,60.25
2022-10-24T08:50:27.403Z,59.85
2022-10-24T08:53:05.731Z,60.32
2022-10-24T08:55:55.179Z,58.82
2022-10-24T08:58:38.277Z,58.35
2022-10-24T09:01:13.636Z,61.18
2022-10-24T09:04:00.034Z,63.56
2022-10-24T09:06:30.187Z,62.71
2022-10-24T09:09:06.127Z,61.58
2022-10-24T09:11:53.617Z,61.66
2022-10-24T09:14:30.238Z,61.04
2022-10-24T09:17:00.861Z,60.12
2022-10-24T09:19:30.425Z,60.48
2022-10-24T09:21:59.346Z,60.52
2022-10-24T09:24:45.972Z,60.50
2022-10-24T09:27:27.294Z,60.16
2022-10-24T09:29:56.870Z,59.62
2022-10-24T09:32:30.983Z,59.59
2022-10-24T09:35:01.559Z,58.05
2022-10-24T09:37:46.061Z,59.61
2022-10-24T09:40:15.097Z,60.61
2022-10-24T09:42:51.776Z,62.58
2022-10-24T09:45:33.866Z,64.99
2022-10-24T09:48:29.159Z,64.37
2022-10-24T09:50:59.118Z,62.65
2022-10-24T09:53:36.378Z,62.05
2022-10-24T09:56:13.456Z,61.58
2022-10-24T09:58:41.938Z,61.72
2022-10-24T10:01:16.260Z,61.18
2022-10-24T10:03:44.623Z,61.03
2022-10-24T10:06:20.624Z,60.24
2022-10-24T10:08:54.717Z,60.16
2022-10-24T10:11:35.099Z,60.02
2022-10-24T10:14:24.802Z,59.82
2022-10-24T10:17:23.943Z,59.51
2022-10-24T10:19:52.677Z,58.48
2022-10-24T10:22:27.163Z,60.20
2022-10-24T10:24:55.333Z,62.86
2022-10-24T10:27:39.310Z,63.59
2022-10-24T10:30:16.395Z,62.41
2022-10-24T10:33:15.465Z,61.83
2022-10-24T10:35:49.687Z,60.79
2022-10-24T10:39:14.204Z,59.77
2022-10-24T10:41:49.422Z,58.06
2022-10-24T10:44:45.769Z,59.70
2022-10-24T10:47:35.528Z,59.97
2022-10-24T10:52:53.604Z,62.72
2022-10-24T10:55:35.408Z,61.31
2022-10-24T10:58:41.766Z,58.54
2022-10-24T11:01:22.142Z,61.60
2022-10-24T11:04:23.972Z,62.06
2022-10-24T11:07:19.755Z,60.60
2022-10-24T11:09:52.362Z,58.66
2022-10-24T11:12:25.972Z,57.42
2022-10-24T11:14:59.276Z,59.46
2022-10-24T11:17:53.459Z,60.53
2022-10-24T11:20:54.107Z,60.52
2022-10-24T11:23:51.394Z,62.96
2022-10-24T11:26:26.973Z,62.09
2022-10-24T11:29:04.656Z,59.05
2022-10-24T11:31:44.215Z,57.70
2022-10-24T11:34:19.489Z,57.76
2022-10-24T11:36:54.985Z,60.28
2022-10-24T11:39:47.957Z,62.39
2022-10-24T11:42:58.252Z,61.14
2022-10-24T11:45:33.000Z,58.21
2022-10-24T11:48:17.046Z,58.14
2022-10-24T11:51:23.615Z,59.67
2022-10-24T11:53:58.724Z,59.40
2022-10-24T11:57:10.785Z,59.70
2022-10-24T11:59:41.039Z,62.24
2022-10-24T12:02:57.806Z,63.25
2022-10-24T12:05:42.783Z,60.04
2022-10-24T12:08:48.101Z,57.07
2022-10-24T12:11:22.311Z,56.92
2022-10-24T12:14:22.031Z,57.54
2022-10-24T12:17:16.105Z,59.97
2022-10-24T12:19:44.791Z,62.66
2022-10-24T12:25:28.098Z,58.23
2022-10-24T12:28:20.067Z,58.89
2022-10-24T12:31:13.191Z,60.09
2022-10-24T12:33:42.729Z,58.67
2022-10-24T12:36:10.760Z,59.35
2022-10-24T12:38:38.673Z,60.33
2022-10-24T12:41:28.056Z,60.63
2022-10-24T12:44:34.428Z,59.89
2022-10-24T12:47:06.203Z,60.64
2022-10-24T12:49:34.027Z,63.94
2022-10-24T12:52:30.667Z,63.90
2022-10-24T12:54:59.661Z,61.28
2022-10-24T12:57:34.342Z,59.06
2022-10-24T13:00:02.373Z,56.49
2022-10-24T13:02:33.448Z,56.28
2022-10-24T13:05:16.283Z,57.60
2022-10-24T13:08:13.158Z,58.37
2022-10-24T13:11:23.316Z,58.93
2022-10-24T13:14:23.130Z,60.07
2022-10-24T13:17:02.463Z,63.95
2022-10-24T13:19:31.357Z,66.95
2022-10-24T13:21:59.834Z,65.79
2022-10-24T13:24:35.682Z,63.35
2022-10-24T13:27:11.776Z,62.14
2022-10-24T13:29:41.619Z,61.48
2022-10-24T13:32:12.595Z,59.42
2022-10-24T13:34:50.304Z,57.21
2022-10-24T13:37:40.339Z,59.53
2022-10-24T13:40:31.440Z,59.89
2022-10-24T13:43:15.534Z,61.17
2022-10-24T13:45:52.522Z,60.65
2022-10-24T13:48:26.626Z,60.76
2022-10-24T13:51:06.266Z,64.64
2022-10-24T13:53:50.345Z,67.12
2022-10-24T13:56:18.178Z,65.72
2022-10-24T13:58:46.555Z,63.67
2022-10-24T14:01:25.845Z,63.25
2022-10-24T14:03:54.680Z,62.33
2022-10-24T14:06:32.833Z,61.91
2022-10-24T14:09:07.064Z,60.65
2022-10-24T14:11:35.477Z,60.09
2022-10-24T14:14:07.186Z,59.97
2022-10-24T14:16:36.432Z,57.89
2022-10-24T14:19:27.201Z,57.57
2022-10-24T14:21:59.303Z,59.33
2022-10-24T14:24:27.165Z,59.65
2022-10-24T14:26:56.962Z,60.88
2022-10-24T14:29:27.922Z,64.24
2022-10-24T14:32:09.911Z,64.78
2022-10-24T14:34:37.983Z,64.29
2022-10-24T14:37:08.914Z,63.02
2022-10-24T14:39:36.787Z,61.10
2022-10-24T14:42:04.781Z,60.64
2022-10-24T14:44:35.053Z,60.32
2022-10-24T14:47:17.791Z,58.55
2022-10-24T14:49:45.608Z,58.22
2022-10-24T14:52:24.376Z,59.53
2022-10-24T14:55:07.966Z,60.98
2022-10-24T14:57:35.776Z,62.26
2022-10-24T15:00:07.829Z,64.86
2022-10-24T15:02:42.008Z,64.89
2022-10-24T15:05:20.232Z,63.21
2022-10-24T15:08:16.640Z,62.28
2022-10-24T15:10:41.797Z,61.23
2022-10-24T15:13:12.444Z,60.69
2022-10-24T15:15:59.646Z,59.66
2022-10-24T15:18:43.080Z,58.88
2022-10-24T15:21:19.200Z,60.87
2022-10-24T15:23:57.550Z,60.85
2022-10-24T15:26:40.785Z,64.46
2022-10-24T15:29:20.121Z,65.75
2022-10-24T15:31:50.447Z,65.05
2022-10-24T15:34:21.122Z,63.75
2022-10-24T15:36:50.732Z,63.47
2022-10-24T15:39:21.754Z,62.98
2022-10-24T15:41:49.632Z,62.41
2022-10-24T15:44:29.525Z,61.46
2022-10-24T15:46:57.491Z,61.91
2022-10-24T15:49:25.360Z,61.79
2022-10-24T15:51:53.225Z,61.38
2022-10-24T15:54:22.325Z,61.26
2022-10-24T15:56:50.397Z,61.01
2022-10-24T15:59:20.433Z,60.92
2022-10-24T16:02:00.648Z,60.99
2022-10-24T16:04:28.938Z,60.91
2022-10-24T16:06:56.952Z,59.29
2022-10-24T16:09:31.291Z,59.80
2022-10-24T16:11:59.190Z,60.36
2022-10-24T16:14:27.161Z,61.44
2022-10-24T16:16:57.789Z,61.63
2022-10-24T16:19:29.137Z,65.67
2022-10-24T16:22:01.199Z,68.13
2022-10-24T16:24:29.206Z,66.90
2022-10-24T16:26:57.340Z,65.80
2022-10-24T16:29:25.308Z,64.90
2022-10-24T16:31:53.177Z,63.74
2022-10-24T16:34:20.946Z,63.50
2022-10-24T16:36:48.710Z,63.66
2022-10-24T16:39:16.570Z,63.49
2022-10-24T16:41:46.443Z,63.07
2022-10-24T16:44:14.554Z,62.77
2022-10-24T16:46:42.416Z,62.61
2022-10-24T16:49:10.283Z,62.24
2022-10-24T16:51:41.793Z,62.59
2022-10-24T16:54:12.163Z,62.71
2022-10-24T16:56:39.973Z,62.78
2022-10-24T16:59:10.336Z,62.61
2022-10-24T17:01:41.189Z,62.34
2022-10-24T17:04:09.059Z,62.13
2022-10-24T17:06:36.934Z,61.42
2022-10-24T17:09:04.886Z,62.26
2022-10-24T17:11:44.883Z,62.02
2022-10-24T17:14:16.595Z,62.08
2022-10-24T17:16:44.455Z,62.00
2022-10-24T17:19:16.323Z,61.97
2022-10-24T17:21:47.319Z,61.52
2022-10-24T17:24:17.525Z,61.90
2022-10-24T17:26:45.442Z,61.93
2022-10-24T17:29:29.625Z,61.69
2022-10-24T17:31:57.874Z,61.39
2022-10-24T17:34:26.649Z,61.64
2022-10-24T17:37:16.200Z,61.90
2022-10-24T17:39:50.540Z,61.87
2022-10-24T17:42:19.739Z,61.39
2022-10-24T17:44:48.430Z,61.58
2022-10-24T17:47:16.358Z,61.66
2022-10-24T17:49:44.359Z,61.67
2022-10-24T17:52:14.172Z,61.69
2022-10-24T17:54:45.775Z,61.92
2022-10-24T17:57:14.203Z,61.70
2022-10-24T17:59:42.068Z,61.90
2022-10-24T18:02:14.351Z,61.57
2022-10-24T18:04:44.955Z,61.32
2022-10-24T18:07:13.117Z,61.84
2022-10-24T18:09:41.214Z,61.72
2022-10-24T18:12:10.209Z,61.69
2022-10-24T18:14:38.149Z,61.62
2022-10-24T18:17:06.473Z,61.49
2022-10-24T18:19:34.517Z,61.48
2022-10-24T18:22:03.820Z,61.27
2022-10-24T18:24:31.889Z,61.27
2022-10-24T18:27:00.061Z,61.40
2022-10-24T18:29:28.367Z,61.62
2022-10-24T18:31:56.510Z,61.45
2022-10-24T18:34:24.888Z,61.69
2022-10-24T18:36:52.956Z,61.64
2022-10-24T18:39:20.926Z,61.70
2022-10-24T18:42:25.974Z,61.64
2022-10-24T18:44:54.751Z,61.73
2022-10-24T18:47:25.722Z,61.33
2022-10-24T18:49:54.736Z,61.26
2022-10-24T18:53:07.807Z,61.80
2022-10-24T18:55:36.912Z,62.21
2022-10-24T18:58:09.580Z,61.54
2022-10-24T19:00:38.354Z,62.20
2022-10-24T19:03:21.901Z,62.36
2022-10-24T19:05:57.187Z,62.21
2022-10-24T19:08:27.869Z,61.66
2022-10-24T19:10:56.604Z,61.86
2022-10-24T19:13:26.162Z,62.15
2022-10-24T19:16:00.395Z,62.97
2022-10-24T19:18:29.595Z,62.57
2022-10-24T19:20:57.550Z,63.77
2022-10-24T19:23:25.508Z,63.91
2022-10-24T19:25:54.097Z,63.58
2022-10-24T19:28:22.343Z,64.29
2022-10-24T19:30:50.338Z,63.26
2022-10-24T19:33:19.330Z,63.85
2022-10-24T19:35:47.519Z,63.43
2022-10-24T19:38:16.708Z,63.25
2022-10-24T19:40:51.633Z,62.88
2022-10-24T19:43:20.912Z,63.67
2022-10-24T19:46:07.249Z,63.51
2022-10-24T19:48:38.265Z,63.20
2022-10-24T19:51:11.456Z,64.31
2022-10-24T19:53:41.087Z,63.98
2022-10-24T19:56:20.046Z,63.72
2022-10-24T19:58:50.621Z,63.11
2022-10-24T20:01:21.130Z,63.30
2022-10-24T20:03:49.730Z,63.37
2022-10-24T20:06:18.107Z,63.76
2022-10-24T20:08:49.295Z,63.40
2022-10-24T20:11:17.626Z,64.05
2022-10-24T20:13:45.493Z,64.12
2022-10-24T20:16:13.617Z,62.81
2022-10-24T20:18:43.488Z,63.21
2022-10-24T20:21:14.311Z,63.76
2022-10-24T20:23:42.279Z,64.46
2022-10-24T20:26:16.365Z,65.30
2022-10-24T20:28:46.613Z,63.86
2022-10-24T20:31:23.798Z,63.93
2022-10-24T20:33:51.773Z,64.24
2022-10-24T20:36:21.385Z,65.92
2022-10-24T20:38:49.547Z,65.70
2022-10-24T20:41:17.617Z,64.56
2022-10-24T20:43:45.789Z,65.24
2022-10-24T20:46:13.694Z,64.19
2022-10-24T20:48:41.929Z,65.04
2022-10-24T20:51:12.867Z,64.27
2022-10-24T20:53:41.041Z,65.15
2022-10-24T20:56:14.409Z,65.13
2022-10-24T20:58:43.345Z,64.11
2022-10-24T21:01:13.595Z,64.57
2022-10-24T21:03:42.230Z,64.41
2022-10-24T21:06:24.433Z,64.45
2022-10-24T21:08:54.390Z,64.02
2022-10-24T21:11:26.009Z,63.65
2022-10-24T21:14:03.876Z,63.74
2022-10-24T21:16:32.073Z,64.15
2022-10-24T21:19:00.246Z,63.63
2022-10-24T21:21:28.419Z,63.69
2022-10-24T21:24:02.531Z,63.09
2022-10-24T21:26:35.421Z,63.09
2022-10-24T21:29:14.942Z,62.37
2022-10-24T21:31:49.631Z,61.93
2022-10-24T21:34:18.585Z,62.09
2022-10-24T21:36:46.447Z,62.21
2022-10-24T21:39:15.428Z,62.24
2022-10-24T21:41:43.230Z,62.68
2022-10-24T21:44:11.161Z,62.95
2022-10-24T21:46:38.923Z,63.05
2022-10-24T21:49:06.792Z,65.50
2022-10-24T21:51:36.395Z,63.39
2022-10-24T21:54:14.268Z,63.14
2022-10-24T21:56:42.031Z,63.23
2022-10-24T21:59:16.219Z,63.83
2022-10-24T22:01:45.912Z,63.92
2022-10-24T22:04:14.475Z,63.62
2022-10-24T22:06:42.933Z,63.79
2022-10-24T22:09:14.297Z,64.52
2022-10-24T22:11:42.565Z,64.23
2022-10-24T22:14:11.969Z,64.17
2022-10-24T22:16:40.247Z,64.99
2022-10-24T22:19:08.109Z,64.88
2022-10-24T22:21:42.700Z,64.81
2022-10-24T22:24:19.074Z,64.74
2022-10-24T22:26:47.234Z,64.73
2022-10-24T22:29:22.202Z,64.17
2022-10-24T22:31:51.556Z,64.64
2022-10-24T22:34:22.234Z,64.36
2022-10-24T22:37:29.232Z,64.36
2022-10-24T22:39:57.493Z,64.53
2022-10-24T22:42:25.573Z,64.49
2022-10-24T22:44:53.939Z,64.13
2022-10-24T22:47:45.460Z,63.93
2022-10-24T22:50:51.220Z,63.65
2022-10-24T22:53:26.258Z,63.17
2022-10-24T22:55:54.117Z,63.11
2022-10-24T22:58:22.491Z,63.36
2022-10-24T23:00:58.932Z,63.22
2022-10-24T23:03:53.674Z,62.16
2022-10-24T23:06:30.229Z,62.13
2022-10-24T23:08:58.396Z,62.58
2022-10-24T23:11:27.091Z,62.37
2022-10-24T23:13:55.256Z,61.98
2022-10-24T23:16:47.258Z,61.76
2022-10-24T23:19:21.448Z,61.28
2022-10-24T23:21:57.824Z,61.55
2022-10-24T23:24:26.243Z,62.13
2022-10-24T23:27:12.442Z,61.70
2022-10-24T23:29:45.633Z,62.47
2022-10-24T23:32:24.606Z,62.39
2022-10-24T23:34:53.829Z,62.34
2022-10-24T23:37:34.722Z,62.45
2022-10-24T23:40:17.436Z,62.26
2022-10-24T23:42:46.178Z,62.58
2022-10-24T23:45:28.737Z,62.41
2022-10-24T23:48:30.203Z,62.25
2022-10-24T23:51:12.165Z,62.52
2022-10-24T23:53:56.022Z,62.24
2022-10-24T23:56:26.947Z,62.11
2022-10-24T23:58:55.442Z,62.05
